sensor_id;sensor_type;location;lat;lon;timestamp;temperature;humidity
44747;DHT22;30472;49.490;10.972;2023-03-26T00:01:43;7.50;99.90
44747;DHT22;30472;49.490;10.972;2023-03-26T00:04:11;7.50;99.90
44747;DHT22;30472;49.490;10.972;2023-03-26T00:06:37;7.50;99.90
44747;DHT22;30472;49.490;10.972;2023-03-26T00:09:06;7.50;99.90
44747;DHT22;30472;49.490;10.972;2023-03-26T00:11:32;7.50;99.90
44747;DHT22;30472;49.490;10.972;2023-03-26T00:13:58;7.50;99.90
44747;DHT22;30472;49.490;10.972;2023-03-26T00:16:26;7.50;99.90
44747;DHT22;30472;49.490;10.972;2023-03-26T00:18:52;7.50;99.90
44747;DHT22;30472;49.490;10.972;2023-03-26T00:21:19;7.50;99.90
44747;DHT22;30472;49.490;10.972;2023-03-26T00:23:46;7.50;99.90
44747;DHT22;30472;49.490;10.972;2023-03-26T00:26:13;7.50;99.90
44747;DHT22;30472;49.490;10.972;2023-03-26T00:28:41;7.50;99.90
44747;DHT22;30472;49.490;10.972;2023-03-26T00:31:08;7.50;99.90
44747;DHT22;30472;49.490;10.972;2023-03-26T00:33:35;7.50;99.90
44747;DHT22;30472;49.490;10.972;2023-03-26T00:36:04;7.40;99.90
44747;DHT22;30472;49.490;10.972;2023-03-26T00:38:31;7.40;99.90
44747;DHT22;30472;49.490;10.972;2023-03-26T00:41:03;7.40;99.90
44747;DHT22;30472;49.490;10.972;2023-03-26T00:43:31;7.40;99.90
44747;DHT22;30472;49.490;10.972;2023-03-26T00:45:57;7.40;99.90
44747;DHT22;30472;49.490;10.972;2023-03-26T00:48:23;7.40;99.90
44747;DHT22;30472;49.490;10.972;2023-03-26T00:50:50;7.40;99.90
44747;DHT22;30472;49.490;10.972;2023-03-26T00:53:16;7.50;99.90
44747;DHT22;30472;49.490;10.972;2023-03-26T00:55:44;7.50;99.90
44747;DHT22;30472;49.490;10.972;2023-03-26T00:58:11;7.50;99.90
44747;DHT22;30472;49.490;10.972;2023-03-26T01:00:49;7.50;99.90
44747;DHT22;30472;49.490;10.972;2023-03-26T01:03:16;7.50;99.90
44747;DHT22;30472;49.490;10.972;2023-03-26T01:05:50;7.50;99.90
44747;DHT22;30472;49.490;10.972;2023-03-26T01:10:48;7.50;99.90
44747;DHT22;30472;49.490;10.972;2023-03-26T01:13:21;7.40;99.90
44747;DHT22;30472;49.490;10.972;2023-03-26T01:15:48;7.50;99.90
44747;DHT22;30472;49.490;10.972;2023-03-26T01:18:18;7.40;99.90
44747;DHT22;30472;49.490;10.972;2023-03-26T01:20:47;7.40;99.90
44747;DHT22;30472;49.490;10.972;2023-03-26T01:23:19;7.50;99.90
44747;DHT22;30472;49.490;10.972;2023-03-26T01:25:55;7.40;99.90
44747;DHT22;30472;49.490;10.972;2023-03-26T01:28:23;7.40;99.90
44747;DHT22;30472;49.490;10.972;2023-03-26T01:36:19;7.60;99.90
44747;DHT22;30472;49.490;10.972;2023-03-26T01:38:58;7.60;99.90
44747;DHT22;30472;49.490;10.972;2023-03-26T01:44:14;7.60;99.90
44747;DHT22;30472;49.490;10.972;2023-03-26T01:46:41;7.60;99.90
44747;DHT22;30472;49.490;10.972;2023-03-26T01:49:07;7.60;99.90
44747;DHT22;30472;49.490;10.972;2023-03-26T01:51:39;7.60;99.90
44747;DHT22;30472;49.490;10.972;2023-03-26T01:54:12;7.50;99.90
44747;DHT22;30472;49.490;10.972;2023-03-26T02:04:46;7.40;99.90
44747;DHT22;30472;49.490;10.972;2023-03-26T02:09:47;7.40;99.90
44747;DHT22;30472;49.490;10.972;2023-03-26T02:12:15;7.30;99.90
44747;DHT22;30472;49.490;10.972;2023-03-26T02:14:42;7.30;99.90
44747;DHT22;30472;49.490;10.972;2023-03-26T02:17:09;7.30;99.90
44747;DHT22;30472;49.490;10.972;2023-03-26T02:19:39;7.30;99.90
44747;DHT22;30472;49.490;10.972;2023-03-26T02:22:08;7.20;99.90
44747;DHT22;30472;49.490;10.972;2023-03-26T02:24:37;7.20;99.90
44747;DHT22;30472;49.490;10.972;2023-03-26T02:27:03;7.20;99.90
44747;DHT22;30472;49.490;10.972;2023-03-26T02:29:33;7.10;99.90
44747;DHT22;30472;49.490;10.972;2023-03-26T02:32:03;7.10;99.90
44747;DHT22;30472;49.490;10.972;2023-03-26T02:34:29;7.10;99.90
44747;DHT22;30472;49.490;10.972;2023-03-26T02:36:55;7.10;99.90
44747;DHT22;30472;49.490;10.972;2023-03-26T02:39:21;7.10;99.90
44747;DHT22;30472;49.490;10.972;2023-03-26T02:41:47;7.10;99.90
44747;DHT22;30472;49.490;10.972;2023-03-26T02:44:13;7.10;99.90
44747;DHT22;30472;49.490;10.972;2023-03-26T02:46:38;7.10;99.90
44747;DHT22;30472;49.490;10.972;2023-03-26T02:49:04;7.00;99.90
44747;DHT22;30472;49.490;10.972;2023-03-26T02:51:29;7.00;99.90
44747;DHT22;30472;49.490;10.972;2023-03-26T02:53:59;6.90;99.90
44747;DHT22;30472;49.490;10.972;2023-03-26T02:56:26;6.80;99.90
44747;DHT22;30472;49.490;10.972;2023-03-26T02:58:51;6.70;99.90
44747;DHT22;30472;49.490;10.972;2023-03-26T03:01:17;6.60;99.90
44747;DHT22;30472;49.490;10.972;2023-03-26T03:03:42;6.50;99.90
44747;DHT22;30472;49.490;10.972;2023-03-26T03:06:08;6.50;99.90
44747;DHT22;30472;49.490;10.972;2023-03-26T03:08:34;6.40;99.90
44747;DHT22;30472;49.490;10.972;2023-03-26T03:11:09;6.50;99.90
44747;DHT22;30472;49.490;10.972;2023-03-26T03:13:35;6.50;99.90
44747;DHT22;30472;49.490;10.972;2023-03-26T03:16:01;6.40;99.90
44747;DHT22;30472;49.490;10.972;2023-03-26T03:18:27;6.40;99.90
44747;DHT22;30472;49.490;10.972;2023-03-26T03:20:52;6.20;99.90
44747;DHT22;30472;49.490;10.972;2023-03-26T03:23:19;6.10;99.90
44747;DHT22;30472;49.490;10.972;2023-03-26T03:25:45;6.10;99.90
44747;DHT22;30472;49.490;10.972;2023-03-26T03:28:11;6.10;99.90
44747;DHT22;30472;49.490;10.972;2023-03-26T03:30:38;6.10;99.90
44747;DHT22;30472;49.490;10.972;2023-03-26T03:33:04;6.10;99.90
44747;DHT22;30472;49.490;10.972;2023-03-26T03:35:30;6.00;99.90
44747;DHT22;30472;49.490;10.972;2023-03-26T03:37:58;6.00;99.90
44747;DHT22;30472;49.490;10.972;2023-03-26T03:40:24;6.00;99.90
44747;DHT22;30472;49.490;10.972;2023-03-26T03:42:50;6.00;99.90
44747;DHT22;30472;49.490;10.972;2023-03-26T03:45:16;6.00;99.90
44747;DHT22;30472;49.490;10.972;2023-03-26T03:47:42;6.00;99.90
44747;DHT22;30472;49.490;10.972;2023-03-26T03:50:08;6.10;99.90
44747;DHT22;30472;49.490;10.972;2023-03-26T03:52:33;6.10;99.90
44747;DHT22;30472;49.490;10.972;2023-03-26T03:54:59;6.20;99.90
44747;DHT22;30472;49.490;10.972;2023-03-26T03:57:26;6.20;99.90
44747;DHT22;30472;49.490;10.972;2023-03-26T03:59:52;6.20;99.90
44747;DHT22;30472;49.490;10.972;2023-03-26T04:02:18;6.20;99.90
44747;DHT22;30472;49.490;10.972;2023-03-26T04:04:51;6.20;99.90
44747;DHT22;30472;49.490;10.972;2023-03-26T04:07:16;6.10;99.90
44747;DHT22;30472;49.490;10.972;2023-03-26T04:09:42;6.20;99.90
44747;DHT22;30472;49.490;10.972;2023-03-26T04:12:07;6.20;99.90
44747;DHT22;30472;49.490;10.972;2023-03-26T04:14:33;6.20;99.90
44747;DHT22;30472;49.490;10.972;2023-03-26T04:16:58;6.20;99.90
44747;DHT22;30472;49.490;10.972;2023-03-26T04:19:24;6.20;99.90
44747;DHT22;30472;49.490;10.972;2023-03-26T04:21:52;6.10;99.90
44747;DHT22;30472;49.490;10.972;2023-03-26T04:24:18;6.10;99.90
44747;DHT22;30472;49.490;10.972;2023-03-26T04:26:47;6.00;99.90
44747;DHT22;30472;49.490;10.972;2023-03-26T04:29:14;6.00;99.90
44747;DHT22;30472;49.490;10.972;2023-03-26T04:31:41;6.00;99.90
44747;DHT22;30472;49.490;10.972;2023-03-26T04:34:12;6.00;99.90
44747;DHT22;30472;49.490;10.972;2023-03-26T04:36:39;6.00;99.90
44747;DHT22;30472;49.490;10.972;2023-03-26T04:39:09;5.90;99.90
44747;DHT22;30472;49.490;10.972;2023-03-26T04:41:35;6.00;99.90
44747;DHT22;30472;49.490;10.972;2023-03-26T04:44:01;5.90;99.90
44747;DHT22;30472;49.490;10.972;2023-03-26T04:46:27;5.90;99.90
44747;DHT22;30472;49.490;10.972;2023-03-26T04:48:58;5.80;99.90
44747;DHT22;30472;49.490;10.972;2023-03-26T04:51:25;5.70;99.90
44747;DHT22;30472;49.490;10.972;2023-03-26T04:53:53;5.60;99.90
44747;DHT22;30472;49.490;10.972;2023-03-26T04:56:37;5.60;99.90
44747;DHT22;30472;49.490;10.972;2023-03-26T04:59:05;5.60;99.90
44747;DHT22;30472;49.490;10.972;2023-03-26T05:01:32;5.60;99.90
44747;DHT22;30472;49.490;10.972;2023-03-26T05:04:02;5.60;99.90
44747;DHT22;30472;49.490;10.972;2023-03-26T05:06:27;5.80;99.90
44747;DHT22;30472;49.490;10.972;2023-03-26T05:08:54;5.80;99.90
44747;DHT22;30472;49.490;10.972;2023-03-26T05:11:20;5.90;99.90
44747;DHT22;30472;49.490;10.972;2023-03-26T05:13:45;5.90;99.90
44747;DHT22;30472;49.490;10.972;2023-03-26T05:16:11;6.00;99.90
44747;DHT22;30472;49.490;10.972;2023-03-26T05:18:38;5.90;99.90
44747;DHT22;30472;49.490;10.972;2023-03-26T05:21:04;6.00;99.90
44747;DHT22;30472;49.490;10.972;2023-03-26T05:23:29;6.00;99.90
44747;DHT22;30472;49.490;10.972;2023-03-26T05:25:55;6.00;99.90
44747;DHT22;30472;49.490;10.972;2023-03-26T05:28:21;6.00;99.90
44747;DHT22;30472;49.490;10.972;2023-03-26T05:30:49;6.00;99.90
44747;DHT22;30472;49.490;10.972;2023-03-26T05:33:17;6.00;99.90
44747;DHT22;30472;49.490;10.972;2023-03-26T05:35:43;6.00;99.90
44747;DHT22;30472;49.490;10.972;2023-03-26T05:38:09;6.10;99.90
44747;DHT22;30472;49.490;10.972;2023-03-26T05:40:35;6.10;99.90
44747;DHT22;30472;49.490;10.972;2023-03-26T05:43:01;6.10;99.90
44747;DHT22;30472;49.490;10.972;2023-03-26T05:45:26;6.10;99.90
44747;DHT22;30472;49.490;10.972;2023-03-26T05:47:52;6.10;99.90
44747;DHT22;30472;49.490;10.972;2023-03-26T05:50:19;6.10;99.90
44747;DHT22;30472;49.490;10.972;2023-03-26T05:52:45;6.20;99.90
44747;DHT22;30472;49.490;10.972;2023-03-26T05:55:10;6.20;99.90
44747;DHT22;30472;49.490;10.972;2023-03-26T05:57:37;6.20;99.90
44747;DHT22;30472;49.490;10.972;2023-03-26T06:00:05;6.20;99.90
44747;DHT22;30472;49.490;10.972;2023-03-26T06:02:33;6.20;99.90
44747;DHT22;30472;49.490;10.972;2023-03-26T06:04:59;6.30;99.90
44747;DHT22;30472;49.490;10.972;2023-03-26T06:07:25;6.30;99.90
44747;DHT22;30472;49.490;10.972;2023-03-26T06:09:51;6.30;99.90
44747;DHT22;30472;49.490;10.972;2023-03-26T06:12:17;6.40;99.90
44747;DHT22;30472;49.490;10.972;2023-03-26T06:14:43;6.40;99.90
44747;DHT22;30472;49.490;10.972;2023-03-26T06:17:10;6.50;99.90
44747;DHT22;30472;49.490;10.972;2023-03-26T06:19:35;6.50;99.90
44747;DHT22;30472;49.490;10.972;2023-03-26T06:22:01;6.60;99.90
44747;DHT22;30472;49.490;10.972;2023-03-26T06:24:27;6.60;99.90
44747;DHT22;30472;49.490;10.972;2023-03-26T06:26:52;6.60;99.90
44747;DHT22;30472;49.490;10.972;2023-03-26T06:29:18;6.70;99.90
44747;DHT22;30472;49.490;10.972;2023-03-26T06:31:44;6.70;99.90
44747;DHT22;30472;49.490;10.972;2023-03-26T06:34:09;6.80;99.90
44747;DHT22;30472;49.490;10.972;2023-03-26T06:36:35;6.90;99.90
44747;DHT22;30472;49.490;10.972;2023-03-26T06:39:01;6.90;99.90
44747;DHT22;30472;49.490;10.972;2023-03-26T06:41:26;7.00;99.90
44747;DHT22;30472;49.490;10.972;2023-03-26T06:43:52;7.10;99.90
44747;DHT22;30472;49.490;10.972;2023-03-26T06:46:18;7.10;99.90
44747;DHT22;30472;49.490;10.972;2023-03-26T06:48:45;7.10;99.90
44747;DHT22;30472;49.490;10.972;2023-03-26T06:51:11;7.10;99.90
44747;DHT22;30472;49.490;10.972;2023-03-26T06:53:37;7.20;99.90
44747;DHT22;30472;49.490;10.972;2023-03-26T06:56:02;7.20;99.90
44747;DHT22;30472;49.490;10.972;2023-03-26T06:58:28;7.30;99.90
44747;DHT22;30472;49.490;10.972;2023-03-26T07:00:55;7.40;99.90
44747;DHT22;30472;49.490;10.972;2023-03-26T07:03:21;7.40;99.90
44747;DHT22;30472;49.490;10.972;2023-03-26T07:05:47;7.40;99.90
44747;DHT22;30472;49.490;10.972;2023-03-26T07:08:14;7.40;99.90
44747;DHT22;30472;49.490;10.972;2023-03-26T07:10:40;7.50;99.90
44747;DHT22;30472;49.490;10.972;2023-03-26T07:13:06;7.50;99.90
44747;DHT22;30472;49.490;10.972;2023-03-26T07:15:32;7.50;99.90
44747;DHT22;30472;49.490;10.972;2023-03-26T07:17:58;7.50;99.90
44747;DHT22;30472;49.490;10.972;2023-03-26T07:20:24;7.50;99.90
44747;DHT22;30472;49.490;10.972;2023-03-26T07:22:50;7.60;99.90
44747;DHT22;30472;49.490;10.972;2023-03-26T07:25:16;7.60;99.90
44747;DHT22;30472;49.490;10.972;2023-03-26T07:28:00;7.60;99.90
44747;DHT22;30472;49.490;10.972;2023-03-26T07:30:47;7.60;99.90
44747;DHT22;30472;49.490;10.972;2023-03-26T07:43:57;7.90;99.90
44747;DHT22;30472;49.490;10.972;2023-03-26T07:46:28;8.00;99.90
44747;DHT22;30472;49.490;10.972;2023-03-26T07:48:56;8.00;99.90
44747;DHT22;30472;49.490;10.972;2023-03-26T07:51:24;8.10;99.90
44747;DHT22;30472;49.490;10.972;2023-03-26T07:53:50;8.10;99.90
44747;DHT22;30472;49.490;10.972;2023-03-26T07:56:34;8.10;99.90
44747;DHT22;30472;49.490;10.972;2023-03-26T08:02:19;8.20;99.90
44747;DHT22;30472;49.490;10.972;2023-03-26T08:04:59;8.20;99.90
44747;DHT22;30472;49.490;10.972;2023-03-26T08:07:52;8.20;99.90
44747;DHT22;30472;49.490;10.972;2023-03-26T08:13:27;8.20;99.90
44747;DHT22;30472;49.490;10.972;2023-03-26T08:16:30;8.30;99.90
44747;DHT22;30472;49.490;10.972;2023-03-26T08:21:57;8.20;99.90
44747;DHT22;30472;49.490;10.972;2023-03-26T08:27:39;8.20;99.90
44747;DHT22;30472;49.490;10.972;2023-03-26T08:30:13;8.20;99.90
44747;DHT22;30472;49.490;10.972;2023-03-26T08:32:41;8.10;99.90
44747;DHT22;30472;49.490;10.972;2023-03-26T08:35:11;8.00;99.90
44747;DHT22;30472;49.490;10.972;2023-03-26T08:37:37;7.90;99.90
44747;DHT22;30472;49.490;10.972;2023-03-26T08:40:03;7.80;99.90
44747;DHT22;30472;49.490;10.972;2023-03-26T08:42:43;7.90;99.90
44747;DHT22;30472;49.490;10.972;2023-03-26T08:51:49;7.90;99.90
44747;DHT22;30472;49.490;10.972;2023-03-26T08:54:46;8.00;99.90
44747;DHT22;30472;49.490;10.972;2023-03-26T09:11:24;7.70;99.90
44747;DHT22;30472;49.490;10.972;2023-03-26T09:14:27;7.60;99.90
44747;DHT22;30472;49.490;10.972;2023-03-26T09:17:22;7.70;99.90
44747;DHT22;30472;49.490;10.972;2023-03-26T09:42:55;7.70;99.90
44747;DHT22;30472;49.490;10.972;2023-03-26T09:48:35;7.90;99.90
44747;DHT22;30472;49.490;10.972;2023-03-26T09:54:08;7.90;99.90
44747;DHT22;30472;49.490;10.972;2023-03-26T09:59:41;7.80;99.90
44747;DHT22;30472;49.490;10.972;2023-03-26T10:05:12;7.80;99.90
44747;DHT22;30472;49.490;10.972;2023-03-26T10:07:55;7.70;99.90
44747;DHT22;30472;49.490;10.972;2023-03-26T10:10:42;7.70;99.90
44747;DHT22;30472;49.490;10.972;2023-03-26T10:16:04;7.70;99.90
44747;DHT22;30472;49.490;10.972;2023-03-26T10:19:02;7.70;99.90
44747;DHT22;30472;49.490;10.972;2023-03-26T10:22:12;7.60;99.90
44747;DHT22;30472;49.490;10.972;2023-03-26T10:24:53;7.60;99.90
44747;DHT22;30472;49.490;10.972;2023-03-26T10:38:48;7.70;99.90
44747;DHT22;30472;49.490;10.972;2023-03-26T10:41:26;7.70;99.90
44747;DHT22;30472;49.490;10.972;2023-03-26T10:52:03;7.80;99.90
44747;DHT22;30472;49.490;10.972;2023-03-26T10:54:36;7.80;99.90
44747;DHT22;30472;49.490;10.972;2023-03-26T11:00:06;7.80;99.90
44747;DHT22;30472;49.490;10.972;2023-03-26T11:02:53;7.80;99.90
44747;DHT22;30472;49.490;10.972;2023-03-26T11:11:43;7.80;99.90
44747;DHT22;30472;49.490;10.972;2023-03-26T11:16:20;7.70;99.90
44747;DHT22;30472;49.490;10.972;2023-03-26T11:18:57;7.60;99.90
44747;DHT22;30472;49.490;10.972;2023-03-26T11:24:22;7.70;99.90
44747;DHT22;30472;49.490;10.972;2023-03-26T11:32:12;8.00;99.90
44747;DHT22;30472;49.490;10.972;2023-03-26T11:34:44;8.10;99.90
44747;DHT22;30472;49.490;10.972;2023-03-26T11:37:18;8.10;99.90
44747;DHT22;30472;49.490;10.972;2023-03-26T11:39:50;8.00;99.90
44747;DHT22;30472;49.490;10.972;2023-03-26T11:42:20;8.00;99.90
44747;DHT22;30472;49.490;10.972;2023-03-26T11:47:20;8.10;99.90
44747;DHT22;30472;49.490;10.972;2023-03-26T11:49:49;8.00;99.90
44747;DHT22;30472;49.490;10.972;2023-03-26T11:52:17;8.00;99.90
44747;DHT22;30472;49.490;10.972;2023-03-26T11:54:42;8.10;99.90
44747;DHT22;30472;49.490;10.972;2023-03-26T11:57:24;7.90;99.90
44747;DHT22;30472;49.490;10.972;2023-03-26T11:59:55;8.00;99.90
44747;DHT22;30472;49.490;10.972;2023-03-26T12:02:26;8.10;99.90
44747;DHT22;30472;49.490;10.972;2023-03-26T12:05:25;8.20;99.90
44747;DHT22;30472;49.490;10.972;2023-03-26T12:08:17;8.30;99.90
44747;DHT22;30472;49.490;10.972;2023-03-26T12:10:49;8.40;99.90
44747;DHT22;30472;49.490;10.972;2023-03-26T12:13:28;8.40;99.90
44747;DHT22;30472;49.490;10.972;2023-03-26T12:16:03;8.50;99.90
44747;DHT22;30472;49.490;10.972;2023-03-26T12:18:30;8.60;99.90
44747;DHT22;30472;49.490;10.972;2023-03-26T12:21:11;8.70;99.90
44747;DHT22;30472;49.490;10.972;2023-03-26T12:24:03;9.00;99.90
44747;DHT22;30472;49.490;10.972;2023-03-26T12:26:41;9.50;99.90
44747;DHT22;30472;49.490;10.972;2023-03-26T12:29:15;10.10;99.90
44747;DHT22;30472;49.490;10.972;2023-03-26T12:31:52;10.90;99.90
44747;DHT22;30472;49.490;10.972;2023-03-26T12:34:20;11.10;99.90
44747;DHT22;30472;49.490;10.972;2023-03-26T12:36:56;11.00;99.90
44747;DHT22;30472;49.490;10.972;2023-03-26T12:41:57;11.60;99.90
44747;DHT22;30472;49.490;10.972;2023-03-26T12:44:56;11.50;99.90
44747;DHT22;30472;49.490;10.972;2023-03-26T12:47:27;11.80;99.90
44747;DHT22;30472;49.490;10.972;2023-03-26T12:49:54;11.50;99.90
44747;DHT22;30472;49.490;10.972;2023-03-26T12:52:44;12.00;99.90
44747;DHT22;30472;49.490;10.972;2023-03-26T13:01:10;12.10;99.90
44747;DHT22;30472;49.490;10.972;2023-03-26T13:04:12;12.30;99.90
44747;DHT22;30472;49.490;10.972;2023-03-26T13:06:44;12.60;99.90
44747;DHT22;30472;49.490;10.972;2023-03-26T13:20:20;13.00;99.90
44747;DHT22;30472;49.490;10.972;2023-03-26T13:23:07;13.50;99.90
44747;DHT22;30472;49.490;10.972;2023-03-26T13:28:32;13.70;99.90
44747;DHT22;30472;49.490;10.972;2023-03-26T13:36:34;13.60;99.90
44747;DHT22;30472;49.490;10.972;2023-03-26T13:39:30;13.10;99.90
44747;DHT22;30472;49.490;10.972;2023-03-26T13:47:14;12.40;99.90
44747;DHT22;30472;49.490;10.972;2023-03-26T13:49:54;12.40;99.90
44747;DHT22;30472;49.490;10.972;2023-03-26T14:01:02;11.70;99.90
44747;DHT22;30472;49.490;10.972;2023-03-26T14:03:54;11.30;99.90
44747;DHT22;30472;49.490;10.972;2023-03-26T14:06:54;10.70;99.90
44747;DHT22;30472;49.490;10.972;2023-03-26T14:12:15;11.00;99.90
44747;DHT22;30472;49.490;10.972;2023-03-26T14:25:55;11.50;99.90
44747;DHT22;30472;49.490;10.972;2023-03-26T14:31:25;11.70;99.90
44747;DHT22;30472;49.490;10.972;2023-03-26T14:45:32;12.10;99.90
44747;DHT22;30472;49.490;10.972;2023-03-26T14:53:49;12.40;99.90
44747;DHT22;30472;49.490;10.972;2023-03-26T15:08:01;12.30;99.90
44747;DHT22;30472;49.490;10.972;2023-03-26T15:16:07;12.50;99.90
44747;DHT22;30472;49.490;10.972;2023-03-26T15:49:58;13.40;99.90
44747;DHT22;30472;49.490;10.972;2023-03-26T15:52:37;13.20;99.90
44747;DHT22;30472;49.490;10.972;2023-03-26T15:55:30;13.00;99.90
44747;DHT22;30472;49.490;10.972;2023-03-26T16:03:38;12.70;99.90
44747;DHT22;30472;49.490;10.972;2023-03-26T16:06:11;12.60;99.90
44747;DHT22;30472;49.490;10.972;2023-03-26T16:08:52;12.50;99.90
44747;DHT22;30472;49.490;10.972;2023-03-26T16:11:51;12.40;99.90
44747;DHT22;30472;49.490;10.972;2023-03-26T16:16:51;12.00;99.90
44747;DHT22;30472;49.490;10.972;2023-03-26T16:22:03;11.80;99.90
44747;DHT22;30472;49.490;10.972;2023-03-26T16:24:34;11.70;99.90
44747;DHT22;30472;49.490;10.972;2023-03-26T16:32:25;11.40;99.90
44747;DHT22;30472;49.490;10.972;2023-03-26T16:42:50;11.10;99.90
44747;DHT22;30472;49.490;10.972;2023-03-26T16:50:23;10.90;99.90
44747;DHT22;30472;49.490;10.972;2023-03-26T16:53:04;10.70;99.90
44747;DHT22;30472;49.490;10.972;2023-03-26T16:55:57;10.70;99.90
44747;DHT22;30472;49.490;10.972;2023-03-26T17:01:09;10.50;99.90
44747;DHT22;30472;49.490;10.972;2023-03-26T17:03:59;10.50;99.90
44747;DHT22;30472;49.490;10.972;2023-03-26T17:06:54;10.40;99.90
44747;DHT22;30472;49.490;10.972;2023-03-26T17:12:13;10.30;99.90
44747;DHT22;30472;49.490;10.972;2023-03-26T17:17:38;10.40;99.90
44747;DHT22;30472;49.490;10.972;2023-03-26T17:23:09;10.30;99.90
44747;DHT22;30472;49.490;10.972;2023-03-26T17:32:00;10.10;99.90
44747;DHT22;30472;49.490;10.972;2023-03-26T17:44:54;10.00;99.90
44747;DHT22;30472;49.490;10.972;2023-03-26T17:47:39;10.10;99.90
44747;DHT22;30472;49.490;10.972;2023-03-26T17:50:15;10.10;99.90
44747;DHT22;30472;49.490;10.972;2023-03-26T17:52:50;10.30;99.90
44747;DHT22;30472;49.490;10.972;2023-03-26T17:55:21;10.30;99.90
44747;DHT22;30472;49.490;10.972;2023-03-26T17:57:56;10.20;99.90
44747;DHT22;30472;49.490;10.972;2023-03-26T18:00:44;10.20;99.90
44747;DHT22;30472;49.490;10.972;2023-03-26T18:03:19;10.00;99.90
44747;DHT22;30472;49.490;10.972;2023-03-26T18:05:47;9.90;99.90
44747;DHT22;30472;49.490;10.972;2023-03-26T18:08:35;9.80;99.90
44747;DHT22;30472;49.490;10.972;2023-03-26T18:14:11;9.70;99.90
44747;DHT22;30472;49.490;10.972;2023-03-26T18:16:44;9.60;99.90
44747;DHT22;30472;49.490;10.972;2023-03-26T18:19:16;9.60;99.90
44747;DHT22;30472;49.490;10.972;2023-03-26T18:21:55;9.50;99.90
44747;DHT22;30472;49.490;10.972;2023-03-26T18:24:45;9.40;99.90
44747;DHT22;30472;49.490;10.972;2023-03-26T18:27:13;9.30;99.90
44747;DHT22;30472;49.490;10.972;2023-03-26T18:29:45;9.30;99.90
44747;DHT22;30472;49.490;10.972;2023-03-26T18:34:39;9.20;99.90
44747;DHT22;30472;49.490;10.972;2023-03-26T18:37:18;9.10;99.90
44747;DHT22;30472;49.490;10.972;2023-03-26T18:40:02;8.90;99.90
44747;DHT22;30472;49.490;10.972;2023-03-26T18:42:43;8.80;99.90
44747;DHT22;30472;49.490;10.972;2023-03-26T18:47:51;8.60;99.90
44747;DHT22;30472;49.490;10.972;2023-03-26T18:50:24;8.50;99.90
44747;DHT22;30472;49.490;10.972;2023-03-26T18:52:50;8.40;99.90
44747;DHT22;30472;49.490;10.972;2023-03-26T18:55:16;8.30;99.90
44747;DHT22;30472;49.490;10.972;2023-03-26T18:57:42;8.30;99.90
44747;DHT22;30472;49.490;10.972;2023-03-26T19:00:17;8.20;99.90
44747;DHT22;30472;49.490;10.972;2023-03-26T19:02:46;8.20;99.90
44747;DHT22;30472;49.490;10.972;2023-03-26T19:05:14;8.20;99.90
44747;DHT22;30472;49.490;10.972;2023-03-26T19:07:41;8.10;99.90
44747;DHT22;30472;49.490;10.972;2023-03-26T19:10:14;8.10;99.90
44747;DHT22;30472;49.490;10.972;2023-03-26T19:12:43;8.10;99.90
44747;DHT22;30472;49.490;10.972;2023-03-26T19:15:10;8.00;99.90
44747;DHT22;30472;49.490;10.972;2023-03-26T19:17:42;8.00;99.90
44747;DHT22;30472;49.490;10.972;2023-03-26T19:20:28;7.90;99.90
44747;DHT22;30472;49.490;10.972;2023-03-26T19:22:55;7.90;99.90
44747;DHT22;30472;49.490;10.972;2023-03-26T19:25:24;7.80;99.90
44747;DHT22;30472;49.490;10.972;2023-03-26T19:27:51;7.70;99.90
44747;DHT22;30472;49.490;10.972;2023-03-26T19:30:34;7.70;99.90
44747;DHT22;30472;49.490;10.972;2023-03-26T19:33:11;7.70;99.90
44747;DHT22;30472;49.490;10.972;2023-03-26T19:35:38;7.70;99.90
44747;DHT22;30472;49.490;10.972;2023-03-26T19:38:24;7.60;99.90
44747;DHT22;30472;49.490;10.972;2023-03-26T19:40:52;7.70;99.90
44747;DHT22;30472;49.490;10.972;2023-03-26T19:43:18;7.60;99.90
44747;DHT22;30472;49.490;10.972;2023-03-26T19:45:44;7.60;99.90
44747;DHT22;30472;49.490;10.972;2023-03-26T19:48:14;7.50;99.90
44747;DHT22;30472;49.490;10.972;2023-03-26T19:50:42;7.50;99.90
44747;DHT22;30472;49.490;10.972;2023-03-26T19:53:18;7.50;99.90
44747;DHT22;30472;49.490;10.972;2023-03-26T19:56:13;7.50;99.90
44747;DHT22;30472;49.490;10.972;2023-03-26T19:58:40;7.50;99.90
44747;DHT22;30472;49.490;10.972;2023-03-26T20:01:17;7.50;99.90
44747;DHT22;30472;49.490;10.972;2023-03-26T20:03:45;7.50;99.90
44747;DHT22;30472;49.490;10.972;2023-03-26T20:06:16;7.40;99.90
44747;DHT22;30472;49.490;10.972;2023-03-26T20:08:42;7.40;99.90
44747;DHT22;30472;49.490;10.972;2023-03-26T20:11:22;7.40;99.90
44747;DHT22;30472;49.490;10.972;2023-03-26T20:13:49;7.40;99.90
44747;DHT22;30472;49.490;10.972;2023-03-26T20:16:31;7.40;99.90
44747;DHT22;30472;49.490;10.972;2023-03-26T20:18:59;7.40;99.90
44747;DHT22;30472;49.490;10.972;2023-03-26T20:21:29;7.40;99.90
44747;DHT22;30472;49.490;10.972;2023-03-26T20:23:56;7.40;99.90
44747;DHT22;30472;49.490;10.972;2023-03-26T20:26:22;7.30;99.90
44747;DHT22;30472;49.490;10.972;2023-03-26T20:28:48;7.40;99.90
44747;DHT22;30472;49.490;10.972;2023-03-26T20:31:17;7.40;99.90
44747;DHT22;30472;49.490;10.972;2023-03-26T20:33:44;7.30;99.90
44747;DHT22;30472;49.490;10.972;2023-03-26T20:36:11;7.30;99.90
44747;DHT22;30472;49.490;10.972;2023-03-26T20:38:41;7.40;99.90
44747;DHT22;30472;49.490;10.972;2023-03-26T20:41:15;7.30;99.90
44747;DHT22;30472;49.490;10.972;2023-03-26T20:43:42;7.30;99.90
44747;DHT22;30472;49.490;10.972;2023-03-26T20:46:24;7.30;99.90
44747;DHT22;30472;49.490;10.972;2023-03-26T20:48:50;7.30;99.90
44747;DHT22;30472;49.490;10.972;2023-03-26T20:51:17;7.30;99.90
44747;DHT22;30472;49.490;10.972;2023-03-26T20:53:45;7.30;99.90
44747;DHT22;30472;49.490;10.972;2023-03-26T20:56:15;7.20;99.90
44747;DHT22;30472;49.490;10.972;2023-03-26T20:58:43;7.20;99.90
44747;DHT22;30472;49.490;10.972;2023-03-26T21:01:10;7.30;99.90
44747;DHT22;30472;49.490;10.972;2023-03-26T21:03:37;7.20;99.90
44747;DHT22;30472;49.490;10.972;2023-03-26T21:06:05;7.20;99.90
44747;DHT22;30472;49.490;10.972;2023-03-26T21:08:36;7.20;99.90
44747;DHT22;30472;49.490;10.972;2023-03-26T21:11:04;7.20;99.90
44747;DHT22;30472;49.490;10.972;2023-03-26T21:13:38;7.20;99.90
44747;DHT22;30472;49.490;10.972;2023-03-26T21:16:05;7.20;99.90
44747;DHT22;30472;49.490;10.972;2023-03-26T21:18:32;7.20;99.90
44747;DHT22;30472;49.490;10.972;2023-03-26T21:21:06;7.20;99.90
44747;DHT22;30472;49.490;10.972;2023-03-26T21:23:47;7.20;99.90
44747;DHT22;30472;49.490;10.972;2023-03-26T21:26:29;7.10;99.90
44747;DHT22;30472;49.490;10.972;2023-03-26T21:28:57;7.10;99.90